createdAt,value
2019-02-24T00:00:25.294Z,37.82
2019-02-24T00:01:25.265Z,37.54
2019-02-24T00:02:25.219Z,37.25
2019-02-24T00:03:25.311Z,37.06
2019-02-24T00:04:25.228Z,37.06
2019-02-24T00:05:25.205Z,37.16
2019-02-24T00:06:25.203Z,36.78
2019-02-24T00:07:25.198Z,36.78
2019-02-24T00:08:25.159Z,36.87
2019-02-24T00:09:33.810Z,36.59
2019-02-24T00:11:29.606Z,36.49
2019-02-24T00:12:29.579Z,36.40
2019-02-24T00:13:29.574Z,36.59
2019-02-24T00:14:29.563Z,36.78
2019-02-24T00:15:29.562Z,37.25
2019-02-24T00:16:29.532Z,37.63
2019-02-24T00:17:29.523Z,36.97
2019-02-24T00:18:29.512Z,36.59
2019-02-24T00:19:29.504Z,36.49
2019-02-24T00:20:29.484Z,36.21
2019-02-24T00:21:29.478Z,36.30
2019-02-24T00:22:29.464Z,36.40
2019-02-24T00:23:29.450Z,36.59
2019-02-24T00:24:29.437Z,36.78
2019-02-24T00:25:29.432Z,36.59
2019-02-24T00:26:29.415Z,36.29
2019-02-24T00:27:29.398Z,36.40
2019-02-24T00:28:29.390Z,36.30
2019-02-24T00:29:29.401Z,36.02
2019-02-24T00:30:29.364Z,35.93
2019-02-24T00:31:29.358Z,36.02
2019-02-24T00:32:29.341Z,35.91
2019-02-24T00:33:29.333Z,35.83
2019-02-24T00:34:29.967Z,35.83
2019-02-24T00:35:29.310Z,36.02
2019-02-24T00:36:29.297Z,36.40
2019-02-24T00:37:29.294Z,36.21
2019-02-24T00:38:29.273Z,36.19
2019-02-24T00:39:29.261Z,36.21
2019-02-24T00:40:29.250Z,36.47
2019-02-24T00:41:29.240Z,36.19
2019-02-24T00:42:29.234Z,36.29
2019-02-24T00:43:29.206Z,36.38
2019-02-24T00:44:29.201Z,36.66
2019-02-24T00:45:29.530Z,36.66
2019-02-24T00:46:29.179Z,36.85
2019-02-24T00:47:29.164Z,36.85
2019-02-24T00:48:29.158Z,36.66
2019-02-24T00:49:29.219Z,36.57
2019-02-24T00:50:29.173Z,36.57
2019-02-24T00:51:29.131Z,36.38
2019-02-24T00:52:29.132Z,36.00
2019-02-24T00:53:29.116Z,36.57
2019-02-24T00:54:29.082Z,36.57
2019-02-24T00:55:30.642Z,36.47
2019-02-24T00:56:29.051Z,36.29
2019-02-24T00:57:29.086Z,36.47
2019-02-24T00:58:29.042Z,36.66
2019-02-24T00:59:29.019Z,36.85
2019-02-24T01:00:29.031Z,37.04
2019-02-24T01:01:29.210Z,37.80
2019-02-24T01:02:29.010Z,37.71
2019-02-24T01:03:28.972Z,37.71
2019-02-24T01:04:28.960Z,37.80
2019-02-24T01:05:28.946Z,38.65
2019-02-24T01:06:28.938Z,38.46
2019-02-24T01:07:28.925Z,38.56
2019-02-24T01:08:28.925Z,38.94
2019-02-24T01:09:28.913Z,38.75
2019-02-24T01:10:28.884Z,38.75
2019-02-24T01:11:28.921Z,39.03
2019-02-24T01:12:28.865Z,39.32
2019-02-24T01:13:28.851Z,39.70
2019-02-24T01:14:28.846Z,39.89
2019-02-24T01:15:28.826Z,40.06
2019-02-24T01:16:28.816Z,40.08
2019-02-24T01:17:28.807Z,40.25
2019-02-24T01:18:28.795Z,40.53
2019-02-24T01:19:28.787Z,41.00
2019-02-24T01:20:28.803Z,41.09
2019-02-24T01:21:28.756Z,40.81
2019-02-24T01:22:28.751Z,41.19
2019-02-24T01:23:28.748Z,41.38
2019-02-24T01:24:28.724Z,41.47
2019-02-24T01:25:28.712Z,41.76
2019-02-24T01:26:28.700Z,41.76
2019-02-24T01:27:28.684Z,42.14
2019-02-24T01:28:28.672Z,42.14
2019-02-24T01:29:28.655Z,42.23
2019-02-24T01:30:28.652Z,42.52
2019-02-24T01:31:28.631Z,42.61
2019-02-24T01:32:28.621Z,42.52
2019-02-24T01:33:28.612Z,42.43
2019-02-24T01:34:28.590Z,42.71
2019-02-24T01:35:28.582Z,42.61
2019-02-24T01:36:28.588Z,43.27
2019-02-24T01:37:28.556Z,43.08
2019-02-24T01:38:28.548Z,43.27
2019-02-24T01:39:28.532Z,43.56
2019-02-24T01:40:28.612Z,43.84
2019-02-24T01:41:28.553Z,44.51
2019-02-24T01:42:28.502Z,44.51
2019-02-24T01:43:28.489Z,44.32
2019-02-24T01:44:28.466Z,44.51
2019-02-24T01:45:28.452Z,44.41
2019-02-24T01:46:37.097Z,44.51
2019-02-24T01:48:32.911Z,44.51
2019-02-24T01:49:32.885Z,44.98
2019-02-24T01:50:32.875Z,45.55
2019-02-24T01:51:32.860Z,45.45
2019-02-24T01:52:32.849Z,45.45
2019-02-24T01:53:32.892Z,45.36
2019-02-24T01:54:32.858Z,45.36
2019-02-24T01:55:32.808Z,45.36
2019-02-24T01:56:32.793Z,45.45
2019-02-24T01:57:32.786Z,44.79
2019-02-24T01:58:35.221Z,44.79
2019-02-24T01:59:32.754Z,45.07
2019-02-24T02:00:32.748Z,44.89
2019-02-24T02:01:32.735Z,45.55
2019-02-24T02:02:32.717Z,45.26
2019-02-24T02:03:32.731Z,45.72
2019-02-24T02:04:32.697Z,45.93
2019-02-24T02:05:32.686Z,45.81
2019-02-24T02:06:32.688Z,46.56
2019-02-24T02:07:32.700Z,46.94
2019-02-24T02:08:32.656Z,46.56
2019-02-24T02:09:32.638Z,46.94
2019-02-24T02:10:32.620Z,47.23
2019-02-24T02:11:32.862Z,47.99
2019-02-24T02:12:32.598Z,48.27
2019-02-24T02:13:32.579Z,49.03
2019-02-24T02:14:32.601Z,49.31
2019-02-24T02:15:32.556Z,50.45
2019-02-24T02:16:32.547Z,50.73
2019-02-24T02:17:32.534Z,51.11
2019-02-24T02:18:32.517Z,51.30
2019-02-24T02:19:32.541Z,51.58
2019-02-24T02:20:32.494Z,51.68
2019-02-24T02:21:32.506Z,52.15
2019-02-24T02:22:32.473Z,52.72
2019-02-24T02:23:32.450Z,53.19
2019-02-24T02:24:32.458Z,53.19
2019-02-24T02:25:32.434Z,53.00
2019-02-24T02:26:32.426Z,53.76
2019-02-24T02:27:32.411Z,53.85
2019-02-24T02:28:32.396Z,53.85
2019-02-24T02:29:32.378Z,53.85
2019-02-24T02:30:41.027Z,54.14
2019-02-24T02:32:36.857Z,54.80
2019-02-24T02:33:36.828Z,54.61
2019-02-24T02:34:36.809Z,55.08
2019-02-24T02:35:36.809Z,55.08
2019-02-24T02:36:36.783Z,55.08
2019-02-24T02:37:36.774Z,55.27
2019-02-24T02:38:36.756Z,55.08
2019-02-24T02:39:36.746Z,55.94
2019-02-24T02:40:36.732Z,55.84
2019-02-24T02:41:38.837Z,55.84
2019-02-24T02:42:36.719Z,56.41
2019-02-24T02:43:36.697Z,56.22
2019-02-24T02:44:36.729Z,56.22
2019-02-24T02:45:36.765Z,56.32
2019-02-24T02:46:36.692Z,56.98
2019-02-24T02:47:36.697Z,57.07
2019-02-24T02:48:36.651Z,56.60
2019-02-24T02:49:36.615Z,56.79
2019-02-24T02:50:36.608Z,56.98
2019-02-24T02:51:36.595Z,56.98
2019-02-24T02:52:36.593Z,56.79
2019-02-24T02:53:36.573Z,56.88
2019-02-24T02:54:36.553Z,56.98
2019-02-24T02:55:36.541Z,57.26
2019-02-24T03:14:11.148Z,57.64
2019-02-24T03:15:11.113Z,57.64
2019-02-24T03:16:11.095Z,57.45
2019-02-24T03:17:11.088Z,57.83
2019-02-24T03:18:11.069Z,57.83
2019-02-24T03:19:11.049Z,57.92
2019-02-24T03:20:11.032Z,58.02
2019-02-24T03:21:11.016Z,57.83
2019-02-24T03:22:11.009Z,57.73
2019-02-24T03:23:10.988Z,57.54
2019-02-24T03:24:10.971Z,57.83
2019-02-24T03:25:10.955Z,57.73
2019-02-24T03:26:10.950Z,57.64
2019-02-24T03:27:11.014Z,58.21
2019-02-24T03:28:10.914Z,57.83
2019-02-24T03:29:10.945Z,58.02
2019-02-24T03:30:10.913Z,58.11
2019-02-24T03:31:10.875Z,57.92
2019-02-24T03:32:10.859Z,58.49
2019-02-24T03:33:10.852Z,58.40
2019-02-24T03:34:10.840Z,58.49
2019-02-24T03:35:10.817Z,58.02
2019-02-24T03:36:10.812Z,58.49
2019-02-24T03:37:10.837Z,58.21
2019-02-24T03:38:10.774Z,58.84
2019-02-24T03:39:10.767Z,58.84
2019-02-24T03:40:10.760Z,59.03
2019-02-24T03:41:10.741Z,59.22
2019-02-24T03:42:10.740Z,59.41
2019-02-24T03:43:10.743Z,58.94
2019-02-24T03:44:10.716Z,59.41
2019-02-24T03:45:10.747Z,59.50
2019-02-24T03:46:10.722Z,60.26
2019-02-24T03:47:10.712Z,59.79
2019-02-24T03:48:10.684Z,59.79
2019-02-24T03:49:10.636Z,60.17
2019-02-24T03:50:10.655Z,60.26
2019-02-24T03:51:10.632Z,60.17
2019-02-24T03:52:10.701Z,60.17
2019-02-24T03:53:10.649Z,60.36
2019-02-24T03:54:10.659Z,60.83
2019-02-24T03:55:10.633Z,60.55
2019-02-24T03:56:10.556Z,60.93
2019-02-24T03:57:10.532Z,60.74
2019-02-24T03:58:10.703Z,61.02
2019-02-24T03:59:15.048Z,61.21
2019-02-24T04:00:10.640Z,60.74
2019-02-24T04:01:10.505Z,61.21
2019-02-24T04:02:10.480Z,61.11
2019-02-24T04:03:10.464Z,61.02
2019-02-24T04:04:10.432Z,60.83
2019-02-24T04:05:10.424Z,60.83
2019-02-24T04:06:10.414Z,60.55
2019-02-24T04:07:10.404Z,60.45
2019-02-24T04:08:10.391Z,60.64
2019-02-24T04:09:10.368Z,60.55
2019-02-24T04:10:10.365Z,60.83
2019-02-24T04:11:10.346Z,60.93
2019-02-24T04:12:10.332Z,61.02
2019-02-24T04:13:10.316Z,61.40
2019-02-24T04:14:10.304Z,61.49
2019-02-24T04:15:10.284Z,60.93
2019-02-24T04:16:10.290Z,61.40
2019-02-24T04:17:10.259Z,61.30
2019-02-24T04:18:10.254Z,61.58
2019-02-24T04:19:10.233Z,61.40
2019-02-24T04:20:10.217Z,61.58
2019-02-24T04:21:10.220Z,61.77
2019-02-24T04:22:10.198Z,61.58
2019-02-24T04:23:10.179Z,61.68
2019-02-24T04:24:10.168Z,61.87
2019-02-24T04:25:10.151Z,61.58
2019-02-24T04:26:10.137Z,61.49
2019-02-24T04:27:11.733Z,61.40
2019-02-24T04:28:10.112Z,61.58
2019-02-24T04:29:10.095Z,61.40
2019-02-24T04:30:10.086Z,61.58
2019-02-24T04:31:10.071Z,61.68
2019-02-24T04:32:10.062Z,62.06
2019-02-24T04:33:10.041Z,61.68
2019-02-24T04:34:10.026Z,61.87
2019-02-24T04:35:10.012Z,61.87
2019-02-24T04:36:09.998Z,61.87
2019-02-24T04:37:09.989Z,61.77
2019-02-24T04:38:09.972Z,61.87
2019-02-24T04:39:09.956Z,61.96
2019-02-24T04:40:17.584Z,62.25
2019-02-24T04:41:09.930Z,62.34
2019-02-24T04:42:09.915Z,62.06
2019-02-24T04:43:09.914Z,62.34
2019-02-24T04:44:09.889Z,61.96
2019-02-24T04:45:09.875Z,61.68
2019-02-24T04:46:09.883Z,62.25
2019-02-24T04:47:09.849Z,62.06
2019-02-24T04:48:09.840Z,61.77
2019-02-24T04:49:09.817Z,62.15
2019-02-24T04:50:09.803Z,62.15
2019-02-24T04:51:09.793Z,62.06
2019-02-24T04:52:09.776Z,62.25
2019-02-24T04:53:09.775Z,62.34
2019-02-24T04:54:09.763Z,62.72
2019-02-24T04:55:09.732Z,62.44
2019-02-24T04:56:09.723Z,62.63
2019-02-24T04:57:09.708Z,62.82
2019-02-24T04:58:09.703Z,62.91
2019-02-24T04:59:09.689Z,62.53
2019-02-24T05:00:09.677Z,61.96
2019-02-24T05:01:09.656Z,61.68
2019-02-24T05:02:09.640Z,62.15
2019-02-24T05:03:09.632Z,61.87
2019-02-24T05:04:09.629Z,61.68
2019-02-24T05:05:09.599Z,61.30
2019-02-24T05:06:09.618Z,61.21
2019-02-24T05:07:09.570Z,61.30
2019-02-24T05:08:09.554Z,61.30
2019-02-24T05:09:09.547Z,60.74
2019-02-24T05:10:09.543Z,61.30
2019-02-24T05:11:09.513Z,61.21
2019-02-24T05:12:09.500Z,60.83
2019-02-24T05:13:09.491Z,61.02
2019-02-24T05:14:09.471Z,60.93
2019-02-24T05:15:09.452Z,60.83
2019-02-24T05:16:09.446Z,61.02
2019-02-24T05:17:09.427Z,60.55
2019-02-24T05:18:09.421Z,60.64
2019-02-24T05:19:09.401Z,60.74
2019-02-24T05:20:09.387Z,60.17
2019-02-24T05:21:09.377Z,59.41
2019-02-24T05:22:09.361Z,59.12
2019-02-24T05:23:09.357Z,59.22
2019-02-24T05:24:09.335Z,59.31
2019-02-24T05:25:09.319Z,59.03
2019-02-24T05:26:09.305Z,58.94
2019-02-24T05:27:09.294Z,58.94
2019-02-24T05:28:09.278Z,59.12
2019-02-24T05:29:09.275Z,58.84
2019-02-24T05:30:09.252Z,59.12
2019-02-24T05:31:09.238Z,59.41
2019-02-24T05:32:09.225Z,59.12
2019-02-24T05:33:09.205Z,59.50
2019-02-24T05:34:09.201Z,58.84
2019-02-24T05:35:09.180Z,58.65
2019-02-24T05:36:09.166Z,58.56
2019-02-24T05:37:09.151Z,58.47
2019-02-24T05:38:09.155Z,58.65
2019-02-24T05:39:09.128Z,58.65
2019-02-24T05:40:09.110Z,59.03
2019-02-24T05:41:09.096Z,58.94
2019-02-24T05:42:09.084Z,59.22
2019-02-24T05:43:09.073Z,59.31
2019-02-24T05:44:09.049Z,59.12
2019-02-24T05:45:09.039Z,59.31
2019-02-24T05:46:09.030Z,59.41
2019-02-24T05:47:09.017Z,59.31
2019-02-24T05:48:09.007Z,59.50
2019-02-24T05:49:08.990Z,59.22
2019-02-24T05:50:08.998Z,59.22
2019-02-24T05:51:08.960Z,59.31
2019-02-24T05:52:08.966Z,59.60
2019-02-24T05:53:08.933Z,59.69
2019-02-24T05:54:08.912Z,59.79
2019-02-24T05:55:08.897Z,59.50
2019-02-24T05:56:08.883Z,59.60
2019-02-24T05:57:08.873Z,59.60
2019-02-24T05:58:08.866Z,59.60
2019-02-24T05:59:08.846Z,59.88
2019-02-24T06:00:08.827Z,60.17
2019-02-24T06:01:08.825Z,59.88
2019-02-24T06:02:08.799Z,59.88
2019-02-24T06:03:08.798Z,60.17
2019-02-24T06:04:08.769Z,60.17
2019-02-24T06:05:08.765Z,60.26
2019-02-24T06:06:08.750Z,60.17
2019-02-24T06:07:08.730Z,60.36
2019-02-24T06:08:08.718Z,59.60
2019-02-24T06:09:08.700Z,60.07
2019-02-24T06:10:08.691Z,60.74
2019-02-24T06:11:08.674Z,60.55
2019-02-24T06:12:08.655Z,60.64
2019-02-24T06:13:08.646Z,60.36
2019-02-24T06:14:08.634Z,60.64
2019-02-24T06:15:08.620Z,61.11
2019-02-24T06:16:08.606Z,60.55
2019-02-24T06:17:08.594Z,61.11
2019-02-24T06:18:08.578Z,61.02
2019-02-24T06:19:08.559Z,60.93
2019-02-24T06:20:08.547Z,61.21
2019-02-24T06:21:08.527Z,60.99
2019-02-24T06:22:08.517Z,60.83
2019-02-24T06:23:08.504Z,61.18
2019-02-24T06:24:08.549Z,61.02
2019-02-24T06:25:08.493Z,60.80
2019-02-24T06:26:17.107Z,61.11
2019-02-24T06:28:12.926Z,60.64
2019-02-24T06:29:12.901Z,60.55
2019-02-24T06:30:12.889Z,60.17
2019-02-24T06:31:12.876Z,60.70
2019-02-24T06:32:12.859Z,60.55
2019-02-24T06:33:12.844Z,61.08
2019-02-24T06:34:12.833Z,61.11
2019-02-24T06:35:12.814Z,60.55
2019-02-24T06:36:12.802Z,60.93
2019-02-24T06:37:12.816Z,60.64
2019-02-24T06:38:12.773Z,60.17
2019-02-24T06:39:12.760Z,59.50
2019-02-24T06:40:12.746Z,59.31
2019-02-24T06:41:12.723Z,60.26
2019-02-24T06:42:12.733Z,60.07
2019-02-24T06:43:12.707Z,60.07
2019-02-24T06:44:12.752Z,60.17
2019-02-24T06:45:12.677Z,59.60
2019-02-24T06:46:12.657Z,59.50
2019-02-24T06:47:12.647Z,59.22
2019-02-24T06:48:12.641Z,59.22
2019-02-24T06:49:12.616Z,59.22
2019-02-24T06:50:12.606Z,59.50
2019-02-24T06:51:12.596Z,59.88
2019-02-24T06:52:12.584Z,59.88
2019-02-24T06:53:12.561Z,59.69
2019-02-24T06:54:12.550Z,59.50
2019-02-24T06:55:12.533Z,59.31
2019-02-24T06:56:12.529Z,59.03
2019-02-24T06:57:12.550Z,58.84
2019-02-24T06:58:12.495Z,59.41
2019-02-24T06:59:12.474Z,59.50
2019-02-24T07:00:14.406Z,59.03
2019-02-24T07:01:12.454Z,58.75
2019-02-24T07:02:12.437Z,59.31
2019-02-24T07:03:12.435Z,58.94
2019-02-24T07:04:12.414Z,59.22
2019-02-24T07:05:12.501Z,58.84
2019-02-24T07:06:12.388Z,58.56
2019-02-24T07:07:12.377Z,58.94
2019-02-24T07:08:12.353Z,59.03
2019-02-24T07:09:12.337Z,58.18
2019-02-24T07:10:12.359Z,58.37
2019-02-24T07:11:12.305Z,58.84
2019-02-24T07:12:12.350Z,58.18
2019-02-24T07:13:12.279Z,58.18
2019-02-24T07:14:12.267Z,58.37
2019-02-24T07:15:12.286Z,58.65
2019-02-24T07:16:12.237Z,58.18
2019-02-24T07:17:12.225Z,58.28
2019-02-24T07:18:12.233Z,58.37
2019-02-24T07:19:12.201Z,57.99
2019-02-24T07:20:12.188Z,57.80
2019-02-24T07:21:12.215Z,57.99
2019-02-24T07:22:12.154Z,57.80
2019-02-24T07:23:12.144Z,57.42
2019-02-24T07:24:12.121Z,57.42
2019-02-24T07:25:12.114Z,57.73
2019-02-24T07:26:21.413Z,57.83
2019-02-24T07:28:16.571Z,57.64
2019-02-24T07:29:16.539Z,57.83
2019-02-24T07:30:25.165Z,57.54
2019-02-24T07:32:30.506Z,57.17
2019-02-24T07:33:30.489Z,57.54
2019-02-24T07:35:25.427Z,57.26
2019-02-24T07:36:25.406Z,56.70
2019-02-24T07:38:30.333Z,56.60
2019-02-24T07:39:30.261Z,57.07
2019-02-24T07:40:30.233Z,56.60
2019-02-24T07:41:30.214Z,56.22
2019-02-24T07:42:30.199Z,56.79
2019-02-24T07:43:30.203Z,56.41
2019-02-24T07:44:30.172Z,55.94
2019-02-24T07:45:30.163Z,56.32
2019-02-24T07:46:30.151Z,55.65
2019-02-24T07:47:30.135Z,54.99
2019-02-24T07:48:30.122Z,55.27
2019-02-24T07:49:30.106Z,56.13
2019-02-24T07:50:30.097Z,55.84
2019-02-24T07:51:30.075Z,55.84
2019-02-24T07:52:30.065Z,55.87
2019-02-24T07:53:30.055Z,55.77
2019-02-24T07:54:30.051Z,56.34
2019-02-24T07:55:30.047Z,56.06
2019-02-24T07:56:30.015Z,55.56
2019-02-24T07:57:29.998Z,55.18
2019-02-24T07:58:29.996Z,54.45
2019-02-24T07:59:29.971Z,54.64
2019-02-24T08:00:32.544Z,54.26
2019-02-24T08:01:29.942Z,54.26
2019-02-24T08:02:30.166Z,54.07
2019-02-24T08:03:29.927Z,53.13
2019-02-24T08:04:29.905Z,52.84
2019-02-24T08:05:29.905Z,52.94
2019-02-24T08:06:29.884Z,52.84
2019-02-24T08:07:29.929Z,51.99
2019-02-24T08:08:29.865Z,52.08
2019-02-24T08:09:29.849Z,52.08
2019-02-24T08:10:29.837Z,51.42
2019-02-24T08:11:29.820Z,52.46
2019-02-24T08:12:29.816Z,52.08
2019-02-24T08:13:29.803Z,51.89
2019-02-24T08:14:29.787Z,51.99
2019-02-24T08:15:29.778Z,51.42
2019-02-24T08:16:29.761Z,51.32
2019-02-24T08:17:29.748Z,50.95
2019-02-24T08:18:29.724Z,51.92
2019-02-24T08:19:30.149Z,51.16
2019-02-24T08:20:29.707Z,51.35
2019-02-24T08:21:29.777Z,50.49
2019-02-24T08:22:29.684Z,50.97
2019-02-24T08:23:29.673Z,50.40
2019-02-24T08:24:29.656Z,50.31
2019-02-24T08:25:29.644Z,50.78
2019-02-24T08:26:29.631Z,49.65
2019-02-24T08:27:29.618Z,49.55
2019-02-24T08:28:29.609Z,49.74
2019-02-24T08:29:29.586Z,49.55
2019-02-24T08:30:29.582Z,49.65
2019-02-24T08:31:29.574Z,49.65
2019-02-24T08:32:29.554Z,48.98
2019-02-24T08:33:29.549Z,48.60
2019-02-24T08:34:29.532Z,48.79
2019-02-24T08:35:29.528Z,48.60
2019-02-24T08:36:29.509Z,48.98
2019-02-24T08:37:29.493Z,48.70
2019-02-24T08:38:29.506Z,48.60
2019-02-24T08:39:29.472Z,47.85
2019-02-24T08:40:29.455Z,47.85
2019-02-24T08:41:29.441Z,47.66
2019-02-24T08:42:29.435Z,48.06
2019-02-24T08:43:29.429Z,47.87
2019-02-24T08:44:29.409Z,47.68
2019-02-24T08:45:29.398Z,47.58
2019-02-24T08:46:29.394Z,47.02
2019-02-24T08:47:29.371Z,47.30
2019-02-24T08:48:29.362Z,46.45
2019-02-24T08:49:29.361Z,46.07
2019-02-24T08:50:29.369Z,46.35
2019-02-24T08:51:29.322Z,46.73
2019-02-24T08:52:29.336Z,46.64
2019-02-24T08:53:29.309Z,45.97
2019-02-24T08:54:29.329Z,45.59
2019-02-24T08:55:29.299Z,45.43
2019-02-24T08:56:29.269Z,44.38
2019-02-24T08:57:29.256Z,42.58
2019-02-24T08:58:29.246Z,42.01
2019-02-24T08:59:29.235Z,42.30
2019-02-24T09:00:29.239Z,41.25
2019-02-24T09:01:29.218Z,41.35
2019-02-24T09:02:29.199Z,41.73
2019-02-24T09:03:29.207Z,42.39
2019-02-24T09:04:29.185Z,41.82
2019-02-24T09:05:29.174Z,41.63
2019-02-24T09:06:29.179Z,41.63
2019-02-24T09:07:29.145Z,41.25
2019-02-24T09:08:29.143Z,41.16
2019-02-24T09:09:29.123Z,41.44
2019-02-24T09:10:29.114Z,41.46
2019-02-24T09:11:29.110Z,40.78
2019-02-24T09:12:29.088Z,40.61
2019-02-24T09:13:29.080Z,40.42
2019-02-24T09:14:29.075Z,40.52
2019-02-24T09:15:29.059Z,40.04
2019-02-24T09:16:29.059Z,40.04
2019-02-24T09:17:29.071Z,40.23
2019-02-24T09:18:29.032Z,39.57
2019-02-24T09:19:29.017Z,38.81
2019-02-24T09:20:29.009Z,39.18
2019-02-24T09:21:28.993Z,39.28
2019-02-24T09:22:28.979Z,39.00
2019-02-24T09:23:28.975Z,38.53
2019-02-24T09:24:28.962Z,37.95
2019-02-24T09:25:28.953Z,37.86
2019-02-24T09:26:28.977Z,37.67
2019-02-24T09:27:28.934Z,37.19
2019-02-24T09:28:28.922Z,36.74
2019-02-24T09:29:28.916Z,37.21
2019-02-24T09:30:28.895Z,37.21
2019-02-24T09:31:28.889Z,36.65
2019-02-24T09:32:28.874Z,36.65
2019-02-24T09:33:28.874Z,36.26
2019-02-24T09:34:28.861Z,36.65
2019-02-24T09:35:28.866Z,36.36
2019-02-24T09:36:28.830Z,36.17
2019-02-24T09:37:28.830Z,35.79
2019-02-24T09:38:28.821Z,36.26
2019-02-24T09:39:28.810Z,36.83
2019-02-24T09:40:28.799Z,37.21
2019-02-24T09:41:28.785Z,37.40
2019-02-24T09:42:28.778Z,37.21
2019-02-24T09:43:28.770Z,36.93
2019-02-24T09:44:28.751Z,36.36
2019-02-24T09:45:28.751Z,36.66
2019-02-24T09:46:28.789Z,36.94
2019-02-24T09:47:28.721Z,37.13
2019-02-24T09:48:28.715Z,36.85
2019-02-24T09:49:28.705Z,37.13
2019-02-24T09:50:28.704Z,36.38
2019-02-24T09:51:28.799Z,35.52
2019-02-24T09:52:28.677Z,35.14
2019-02-24T09:53:28.666Z,35.42
2019-02-24T09:54:28.670Z,35.42
2019-02-24T09:55:28.644Z,34.78
2019-02-24T09:56:28.633Z,35.25
2019-02-24T09:57:28.625Z,35.73
2019-02-24T09:58:28.627Z,34.88
2019-02-24T09:59:28.615Z,34.59
2019-02-24T10:00:28.607Z,34.76
2019-02-24T10:01:28.588Z,33.91
2019-02-24T10:02:28.607Z,34.50
2019-02-24T10:03:28.574Z,33.83
2019-02-24T10:04:29.352Z,34.78
2019-02-24T10:05:28.557Z,34.11
2019-02-24T10:06:28.543Z,33.73
2019-02-24T10:07:28.567Z,33.54
2019-02-24T10:08:36.184Z,33.36
2019-02-24T10:10:22.253Z,33.54
2019-02-24T10:11:22.218Z,34.11
2019-02-24T10:12:22.208Z,33.47
2019-02-24T10:13:22.199Z,32.80
2019-02-24T10:14:22.186Z,32.90
2019-02-24T10:15:22.222Z,32.80
2019-02-24T10:16:22.166Z,32.90
2019-02-24T10:17:22.159Z,32.99
2019-02-24T10:18:22.175Z,32.70
2019-02-24T10:19:22.141Z,32.90
2019-02-24T10:20:30.764Z,32.32
2019-02-24T10:22:26.607Z,32.99
2019-02-24T10:23:35.227Z,32.62
2019-02-24T10:25:41.054Z,31.96
2019-02-24T10:26:40.701Z,32.15
2019-02-24T10:28:24.657Z,31.01
2019-02-24T10:29:24.621Z,31.10
2019-02-24T10:30:24.619Z,31.20
2019-02-24T10:31:24.628Z,31.29
2019-02-24T10:32:24.696Z,30.63
2019-02-24T10:33:24.582Z,30.82
2019-02-24T10:34:24.584Z,31.21
2019-02-24T10:35:24.564Z,31.21
2019-02-24T10:36:24.563Z,30.74
2019-02-24T10:37:24.551Z,30.06
2019-02-24T10:38:24.545Z,30.06
2019-02-24T10:39:29.650Z,31.50
2019-02-24T10:40:24.527Z,31.50
2019-02-24T10:41:24.526Z,31.21
2019-02-24T10:42:24.518Z,30.83
2019-02-24T10:43:24.507Z,31.21
2019-02-24T10:44:24.493Z,31.60
2019-02-24T10:45:24.485Z,31.31
2019-02-24T10:46:24.487Z,31.21
2019-02-24T10:47:24.474Z,31.50
2019-02-24T10:48:24.480Z,31.79
2019-02-24T10:49:24.475Z,31.02
2019-02-24T10:50:24.444Z,30.65
2019-02-24T10:51:25.466Z,31.12
2019-02-24T10:52:24.439Z,31.12
2019-02-24T10:53:24.417Z,31.12
2019-02-24T10:54:24.420Z,31.31
2019-02-24T10:55:24.417Z,30.74
2019-02-24T10:56:24.406Z,31.02
2019-02-24T10:57:24.404Z,30.94
2019-02-24T10:58:24.389Z,31.32
2019-02-24T10:59:24.374Z,31.52
2019-02-24T11:00:24.368Z,31.42
2019-02-24T11:01:29.646Z,30.47
2019-02-24T11:02:24.360Z,29.80
2019-02-24T11:03:24.351Z,30.09
2019-02-24T11:04:24.338Z,30.09
2019-02-24T11:05:24.335Z,29.99
2019-02-24T11:06:24.325Z,29.04
2019-02-24T11:07:24.319Z,28.66
2019-02-24T11:08:24.314Z,29.80
2019-02-24T11:09:24.306Z,29.91
2019-02-24T11:10:24.292Z,28.94
2019-02-24T11:11:24.295Z,28.75
2019-02-24T11:12:24.294Z,29.61
2019-02-24T11:13:24.284Z,30.00
2019-02-24T11:14:24.264Z,29.52
2019-02-24T11:15:24.269Z,29.52
2019-02-24T11:16:24.255Z,29.61
2019-02-24T11:17:24.247Z,29.14
2019-02-24T11:18:24.240Z,29.52
2019-02-24T11:19:24.231Z,29.71
2019-02-24T11:20:24.219Z,29.71
2019-02-24T11:21:24.211Z,29.52
2019-02-24T11:22:24.220Z,28.85
2019-02-24T11:23:24.214Z,29.23
2019-02-24T11:24:24.193Z,29.61
2019-02-24T11:25:24.743Z,29.14
2019-02-24T11:26:24.178Z,28.85
2019-02-24T11:27:24.183Z,27.99
2019-02-24T11:28:24.164Z,28.85
2019-02-24T11:29:24.176Z,29.34
2019-02-24T11:30:24.159Z,28.77
2019-02-24T11:31:24.147Z,27.99
2019-02-24T11:32:24.135Z,28.29
2019-02-24T11:33:24.130Z,27.91
2019-02-24T11:34:24.128Z,28.29
2019-02-24T11:35:24.118Z,27.71
2019-02-24T11:36:24.115Z,28.67
2019-02-24T11:37:24.116Z,28.77
2019-02-24T11:38:24.098Z,28.67
2019-02-24T11:39:24.111Z,28.39
2019-02-24T11:40:24.081Z,27.81
2019-02-24T11:41:24.077Z,27.91
2019-02-24T11:42:24.064Z,27.81
2019-02-24T11:43:24.089Z,27.91
2019-02-24T11:44:24.057Z,28.02
2019-02-24T11:45:24.048Z,27.91
2019-02-24T11:46:24.040Z,27.92
2019-02-24T11:47:24.037Z,27.36
2019-02-24T11:48:24.058Z,27.36
2019-02-24T11:49:24.137Z,26.68
2019-02-24T11:50:24.009Z,27.07
2019-02-24T11:51:23.999Z,26.78
2019-02-24T11:52:23.994Z,26.50
2019-02-24T11:53:23.994Z,27.73
2019-02-24T11:54:24.001Z,27.64
2019-02-24T11:55:23.992Z,26.88
2019-02-24T11:56:23.973Z,27.64
2019-02-24T11:57:23.965Z,27.75
2019-02-24T11:58:23.957Z,27.84
2019-02-24T11:59:23.958Z,27.75
2019-02-24T12:00:23.942Z,27.07
2019-02-24T12:01:23.978Z,26.89
2019-02-24T12:02:23.941Z,27.66
2019-02-24T12:03:23.926Z,27.64
2019-02-24T12:04:23.914Z,26.50
2019-02-24T12:05:23.914Z,27.84
2019-02-24T12:06:23.913Z,27.73
2019-02-24T12:07:23.903Z,27.56
2019-02-24T12:08:23.895Z,26.97
2019-02-24T12:09:23.893Z,26.88
2019-02-24T12:10:23.883Z,26.97
2019-02-24T12:11:23.874Z,27.56
2019-02-24T12:12:23.865Z,27.66
2019-02-24T12:13:23.937Z,26.78
2019-02-24T12:14:23.890Z,27.47
2019-02-24T12:15:23.845Z,27.56
2019-02-24T12:16:23.835Z,27.64
2019-02-24T12:17:23.827Z,28.02
2019-02-24T12:18:23.835Z,28.02
2019-02-24T12:19:23.854Z,28.78
2019-02-24T12:20:23.817Z,28.97
2019-02-24T12:21:23.923Z,28.97
2019-02-24T12:22:23.812Z,28.69
2019-02-24T12:23:23.790Z,29.47
2019-02-24T12:24:23.791Z,29.47
2019-02-24T12:25:23.792Z,28.89
2019-02-24T12:26:23.777Z,28.97
2019-02-24T12:27:23.766Z,28.99
2019-02-24T12:28:23.784Z,28.99
2019-02-24T12:29:23.759Z,29.08
2019-02-24T12:30:23.753Z,28.80
2019-02-24T12:31:23.751Z,28.23
2019-02-24T12:32:23.739Z,28.80
2019-02-24T12:33:23.733Z,27.94
2019-02-24T12:34:23.731Z,28.70
2019-02-24T12:35:23.726Z,28.03
2019-02-24T12:36:23.715Z,27.66
2019-02-24T12:37:23.709Z,27.47
2019-02-24T12:38:23.705Z,28.03
2019-02-24T12:39:23.700Z,27.94
2019-02-24T12:40:23.691Z,28.70
2019-02-24T12:41:23.685Z,28.70
2019-02-24T12:42:23.686Z,27.94
2019-02-24T12:43:23.682Z,27.94
2019-02-24T12:44:23.698Z,27.84
2019-02-24T12:45:23.707Z,27.75
2019-02-24T12:46:23.651Z,27.84
2019-02-24T12:47:23.646Z,28.70
2019-02-24T12:48:23.639Z,27.84
2019-02-24T12:49:23.636Z,27.94
2019-02-24T12:50:23.641Z,28.32
2019-02-24T12:51:23.621Z,27.84
2019-02-24T12:52:23.621Z,28.51
2019-02-24T12:53:23.608Z,28.51
2019-02-24T12:54:23.601Z,28.70
2019-02-24T12:55:23.602Z,28.03
2019-02-24T12:56:23.595Z,28.80
2019-02-24T12:57:23.589Z,28.70
2019-02-24T12:58:23.595Z,28.51
2019-02-24T12:59:23.595Z,29.08
2019-02-24T13:00:23.567Z,28.42
2019-02-24T13:01:23.678Z,29.08
2019-02-24T13:02:23.552Z,28.53
2019-02-24T13:03:24.172Z,27.94
2019-02-24T13:04:23.599Z,27.94
2019-02-24T13:05:23.545Z,28.43
2019-02-24T13:06:23.553Z,28.91
2019-02-24T13:07:23.578Z,28.72
2019-02-24T13:08:23.568Z,28.14
2019-02-24T13:09:23.562Z,27.76
2019-02-24T13:10:23.546Z,27.95
2019-02-24T13:11:23.532Z,27.94
2019-02-24T13:12:23.543Z,28.81
2019-02-24T13:13:23.658Z,28.81
2019-02-24T13:14:23.519Z,28.03
2019-02-24T13:15:23.570Z,28.53
2019-02-24T13:16:23.494Z,28.53
2019-02-24T13:17:23.470Z,28.33
2019-02-24T13:18:23.456Z,27.94
2019-02-24T13:19:23.475Z,28.72
2019-02-24T13:20:23.450Z,28.91
2019-02-24T13:21:23.446Z,28.91
2019-02-24T13:22:33.129Z,28.72